It's Tuesday,
December 10th, 2019
User not logged in
[Run Race Header Image][Run Race logo]
  
Race webcasting is attempted by race directors and their support staff. Please remember that conditions under which they're working may make it difficult to post timely webcast updates... your interest and patience is appreciated!
Race Information
Race Name:Kettle Moraine Endurance Races 100/100k/50k/38 mile run run
Location:LaGrange
State:Wisconsin, United States
 button: button: Webcast Autoplay
Event Information
Name of Event:Kettle Moraine 100m
Distance:100 Miles
Started Date/Time:Saturday June 1st, 2019, 5:59:59.29 am
button: Assign Numbers  
Checkpoint:Antique Lane Outbound
Distance:18.8 Miles
Gun Start Time:Saturday June 1st, 2019 5:59:59.29 am
Calculate Chip Start Time:< not set >
Y or N... Calculate splits based upon participant chip start time?
Allow Early Chip Start Time:< not set >
Y or N... Allow participants a chip start time prior to gun start?
Pos Race
Number
NameAgeSexTimePace 
1169Jonathan Koscinski38M2:43:52.08:43.0Sat Jun 1st 8:43:51 am
2125DAVID HANSEN33M2:46:23.68:51.0Sat Jun 1st 8:46:22 am
3222Jon Noll34M2:46:27.18:51.2Sat Jun 1st 8:46:26 am
4157Jason Keeler36M2:46:58.68:52.9Sat Jun 1st 8:46:57 am
5186James Luebke36M2:53:24.69:13.4Sat Jun 1st 8:53:23 am
6246Tom Rauen36M2:56:57.79:24.8Sat Jun 1st 8:56:56 am
7350William Kidnew31M2:59:54.39:34.2Sat Jun 1st 8:59:53 am
8224Tristan Obluck34M2:59:56.79:34.3Sat Jun 1st 8:59:56 am
9315Christine Westcott49F2:59:59.39:34.4Sat Jun 1st 8:59:58 am
10134Lindsay Henkels39F3:00:36.29:36.4Sat Jun 1st 9:00:35 am
11139Michael Hinterberg40M3:01:52.79:40.5Sat Jun 1st 9:01:51 am
12322Lisa Wonneberg38F3:04:01.19:47.3Sat Jun 1st 9:04:00 am
1332Jamie Blumentritt31F3:06:04.29:53.8Sat Jun 1st 9:06:03 am
14148Tony Jensen30M3:06:06.59:54.0Sat Jun 1st 9:06:05 am
15209Kyle Moss28M3:08:26.410:01.4Sat Jun 1st 9:08:25 am
16103Steve Fredrickson39M3:08:32.310:01.7Sat Jun 1st 9:08:31 am
1760Jess Conboy38M3:09:24.710:04.5Sat Jun 1st 9:09:23 am
18307Jeremy Verstraete42M3:09:41.310:05.4Sat Jun 1st 9:09:40 am
19164Scott Klopfenstein48M3:10:35.210:08.3Sat Jun 1st 9:10:34 am
2044Stacey Buckley43F3:10:36.010:08.3Sat Jun 1st 9:10:35 am
2177Relena Del Toro Ribbons32F3:10:37.610:08.4Sat Jun 1st 9:10:36 am
22135Lucas Henson34M3:10:38.510:08.4Sat Jun 1st 9:10:37 am
2320Jeffrey Lenard53M3:10:43.010:08.7Sat Jun 1st 9:10:42 am
24266Mike Schmitt42M3:10:49.510:09.0Sat Jun 1st 9:10:48 am
25312Frayah Wasmund34F3:10:50.910:09.1Sat Jun 1st 9:10:50 am
26215Peeter Muursepp49M3:10:51.610:09.1Sat Jun 1st 9:10:50 am
27309Mike Wallin35M3:11:01.210:09.6Sat Jun 1st 9:11:00 am
28299John Truelove51M3:12:06.110:13.1Sat Jun 1st 9:12:05 am
29110Bibo Gao41F3:12:58.310:15.9Sat Jun 1st 9:12:57 am
30260Barry Sackett50M3:13:00.910:16.0Sat Jun 1st 9:13:00 am
31217ERIC NELSON42M3:13:18.510:16.9Sat Jun 1st 9:13:17 am
32173Jon Laack33M3:13:19.110:17.0Sat Jun 1st 9:13:18 am
33122Peter Hancovsky22M3:14:00.210:19.2Sat Jun 1st 9:13:59 am
34201Abe Mendoza42M3:14:03.110:19.3Sat Jun 1st 9:14:02 am
35313Brian Wean37M3:14:36.610:21.1Sat Jun 1st 9:14:35 am
36325Keith Wurm39M3:14:43.310:21.5Sat Jun 1st 9:14:42 am
37280jonathan Spry36M3:17:16.510:29.6Sat Jun 1st 9:17:15 am
381William Abel46M3:19:05.310:35.4Sat Jun 1st 9:19:04 am
3958Emily Collins40F3:19:41.010:37.3Sat Jun 1st 9:19:40 am
4023Andrew Barr31M3:19:47.710:37.6Sat Jun 1st 9:19:47 am
41176Tim Landewe45M3:20:12.210:38.9Sat Jun 1st 9:20:11 am
42244Erik Raivo35M3:21:08.810:42.0Sat Jun 1st 9:21:08 am
4338Curt brey39M3:21:26.710:42.9Sat Jun 1st 9:21:26 am
4488Jen Even34F3:21:27.910:43.0Sat Jun 1st 9:21:27 am
4585Chris Dwyer39M3:22:20.010:45.7Sat Jun 1st 9:22:19 am
46126Jon Hanson42M3:23:12.010:48.5Sat Jun 1st 9:23:11 am
4755Anthony Ciske41M3:23:25.210:49.2Sat Jun 1st 9:23:24 am
48301David Ulbert61M3:23:29.410:49.4Sat Jun 1st 9:23:28 am
4947Rachel Burke34F3:23:59.110:51.0Sat Jun 1st 9:23:58 am
50298Ashley Truan35F3:24:05.910:51.4Sat Jun 1st 9:24:05 am
51255Mike Rohner39M3:24:11.810:51.7Sat Jun 1st 9:24:11 am
52138Jason Herrboldt40M3:25:16.910:55.2Sat Jun 1st 9:25:16 am
5322Shaun Barnes47M3:26:04.910:57.7Sat Jun 1st 9:26:04 am
5427Brandon Becker42M3:26:05.410:57.7Sat Jun 1st 9:26:04 am
55241Bryan Powers51M3:26:08.410:57.9Sat Jun 1st 9:26:07 am
5675Tammy Davis40F3:26:13.210:58.1Sat Jun 1st 9:26:12 am
57150Ray Johnson40M3:26:57.311:00.5Sat Jun 1st 9:26:56 am
58184Erika Lohn46F3:27:46.611:03.1Sat Jun 1st 9:27:45 am
592Timothy Adamski30M3:28:48.411:06.4Sat Jun 1st 9:28:47 am
60182Jeff Leuwerke38M3:29:48.711:09.6Sat Jun 1st 9:29:48 am
61278Mark Smith40M3:30:16.711:11.1Sat Jun 1st 9:30:15 am
62282Anthony Steeno39M3:30:17.311:11.1Sat Jun 1st 9:30:16 am
6345Mike Bull44M3:31:33.011:15.2Sat Jun 1st 9:31:32 am
6482Craig Duhn43M3:32:24.811:17.9Sat Jun 1st 9:32:24 am
65214Steve Murray55M3:32:47.511:19.1Sat Jun 1st 9:32:46 am
66233Jake Peterson29M3:32:48.611:19.2Sat Jun 1st 9:32:47 am
67195Shannon McFarland43M3:33:29.411:21.3Sat Jun 1st 9:33:28 am
6850Miguel Carreon52M3:33:32.211:21.5Sat Jun 1st 9:33:31 am
69104Jennifer Freeman38F3:33:35.011:21.6Sat Jun 1st 9:33:34 am
70293Barry Thrune43M3:33:54.911:22.7Sat Jun 1st 9:33:54 am
71117Matt Granstrom40M3:34:00.211:23.0Sat Jun 1st 9:33:59 am
72318Brad Whitson55M3:34:17.211:23.9Sat Jun 1st 9:34:16 am
73153Brian Jubeck42M3:34:49.811:25.6Sat Jun 1st 9:34:49 am
74141Russell House22M3:34:51.711:25.7Sat Jun 1st 9:34:50 am
75172Jason Kumlien49M3:35:03.911:26.4Sat Jun 1st 9:35:03 am
76276David Smith38M3:35:37.711:28.2Sat Jun 1st 9:35:36 am
7783John Duncombe42M3:36:17.611:30.3Sat Jun 1st 9:36:16 am
78118Lanier Greenhaw48M3:37:43.211:34.9Sat Jun 1st 9:37:42 am
79136Ilja Herdt35M3:38:32.711:37.5Sat Jun 1st 9:38:31 am
8051Steven Kuntz41M3:38:35.411:37.6Sat Jun 1st 9:38:34 am
8171Bill Curry39M3:38:39.111:37.8Sat Jun 1st 9:38:38 am
82296Jaymz Touchstone51M3:38:41.111:37.9Sat Jun 1st 9:38:40 am
83140Laura Hoban39F3:38:43.111:38.0Sat Jun 1st 9:38:42 am
84181Lori Leonard57F3:38:53.611:38.6Sat Jun 1st 9:38:52 am
8572Kristen Cwik41F3:39:00.811:39.0Sat Jun 1st 9:39:00 am
8642Jason Brozek39M3:39:48.511:41.5Sat Jun 1st 9:39:47 am
87226Adam Page35M3:40:22.911:43.3Sat Jun 1st 9:40:22 am
88219Kurt Neumann44M3:40:26.211:43.5Sat Jun 1st 9:40:25 am
89261Chris Salamasick33M3:40:33.911:43.9Sat Jun 1st 9:40:33 am
90127Gina Harcrow47F3:41:01.411:45.4Sat Jun 1st 9:41:00 am
9170Jason Crowe46M3:41:44.511:47.7Sat Jun 1st 9:41:43 am
92171Predrag Krkic64M3:41:56.111:48.3Sat Jun 1st 9:41:55 am
93310Ronghui Wang51M3:43:39.011:53.8Sat Jun 1st 9:43:38 am
94203Scott Meyers51M3:43:40.711:53.9Sat Jun 1st 9:43:39 am
9574Heather Davenport52F3:43:47.211:54.2Sat Jun 1st 9:43:46 am
96191Panagiotis MALLIARIS53M3:43:49.711:54.3Sat Jun 1st 9:43:49 am
97277Malcolm Smith56M3:44:13.011:55.6Sat Jun 1st 9:44:12 am
9876Sonya Decker52F3:44:14.211:55.6Sat Jun 1st 9:44:13 am
99251Parker Rios52M3:44:21.111:56.0Sat Jun 1st 9:44:20 am
100245Tony Rajkowski41M3:44:38.411:56.9Sat Jun 1st 9:44:37 am
10152Brian Cavanaugh38M3:44:40.611:57.1Sat Jun 1st 9:44:39 am
102196Candice McMackin46F3:44:44.711:57.3Sat Jun 1st 9:44:44 am
103106austin frion36M3:45:51.812:00.8Sat Jun 1st 9:45:51 am
10478Paul Deuchar43M3:45:57.312:01.1Sat Jun 1st 9:45:56 am
105225Charlie Ortiz39M3:46:35.712:03.2Sat Jun 1st 9:46:34 am
106151ERROL JONES69M3:47:16.312:05.3Sat Jun 1st 9:47:15 am
10717Christopher Baldwin46M3:47:45.912:06.9Sat Jun 1st 9:47:45 am
10873Ronnie Daniel49M3:47:47.212:07.0Sat Jun 1st 9:47:46 am
10940Kurt Brown52M3:48:09.512:08.2Sat Jun 1st 9:48:08 am
11016Corey Baker49M3:49:52.312:13.6Sat Jun 1st 9:49:51 am
111248Jessica Rettig40F3:49:54.612:13.8Sat Jun 1st 9:49:53 am
112113Jeff Goodmanson56M3:50:02.412:14.2Sat Jun 1st 9:50:01 am
113304Tim Vanderhoof51M3:50:07.612:14.4Sat Jun 1st 9:50:06 am
11419Laney Baris44F3:50:08.512:14.5Sat Jun 1st 9:50:07 am
115303Brent Vanderhoof48M3:50:09.912:14.6Sat Jun 1st 9:50:09 am
1166Alisha Alness32F3:50:15.012:14.8Sat Jun 1st 9:50:14 am
1179Jeremy Anderson45M3:50:38.512:16.1Sat Jun 1st 9:50:37 am
11881Roger Doyle44M3:50:49.812:16.7Sat Jun 1st 9:50:49 am
11911Jon Archer35M3:50:57.512:17.1Sat Jun 1st 9:50:56 am
120283Sharleen Stevens36F3:51:18.112:18.2Sat Jun 1st 9:51:17 am
121143jeremy hurm42M3:51:46.812:19.7Sat Jun 1st 9:51:46 am
12249Ausra Butkeviciute42F3:52:15.512:21.3Sat Jun 1st 9:52:14 am
123237Richard Plezia60M3:52:19.512:21.5Sat Jun 1st 9:52:18 am
12493Bryan Fillman47M3:52:46.112:22.9Sat Jun 1st 9:52:45 am
12553Todd Chandler51M3:52:59.812:23.6Sat Jun 1st 9:52:59 am
126243Meghan Prohaska30F3:53:01.112:23.7Sat Jun 1st 9:53:00 am
127284Scott Stith37M3:53:02.812:23.8Sat Jun 1st 9:53:02 am
128208William Morrissey37M3:54:03.412:27.0Sat Jun 1st 9:54:02 am
129218Mark Nelson50M3:54:18.012:27.8Sat Jun 1st 9:54:17 am
13010Scott Anderson37M3:54:52.612:29.6Sat Jun 1st 9:54:51 am
131264Nick Schaid34M3:54:55.212:29.7Sat Jun 1st 9:54:54 am
132179Matthew Lee40M3:55:05.312:30.3Sat Jun 1st 9:55:04 am
133146Stacy Jantz27F3:55:45.912:32.4Sat Jun 1st 9:55:45 am
134227John Papiernik34M3:55:47.712:32.5Sat Jun 1st 9:55:46 am
13587Mike Elsbury35M3:55:49.212:32.6Sat Jun 1st 9:55:48 am
136212Andrew Murphy35M3:55:52.812:32.8Sat Jun 1st 9:55:52 am
13726Jon Beard64M3:56:12.612:33.9Sat Jun 1st 9:56:11 am
138202David Mentjes49M3:56:58.812:36.3Sat Jun 1st 9:56:58 am
139256Moriel Rothman-Zecher29M3:56:59.812:36.4Sat Jun 1st 9:56:59 am
140174Joshua Lacey34M3:57:05.512:36.7Sat Jun 1st 9:57:04 am
14168Dan Crouse42M3:57:06.612:36.7Sat Jun 1st 9:57:05 am
142154David Just59M3:57:14.812:37.2Sat Jun 1st 9:57:14 am
143317Tony Weyers49M3:57:23.612:37.6Sat Jun 1st 9:57:22 am
144230Jason Patera43M3:58:03.912:39.8Sat Jun 1st 9:58:03 am
145314Tim Wegner53M3:58:05.112:39.8Sat Jun 1st 9:58:04 am
146112Matt Goff32M3:58:19.612:40.6Sat Jun 1st 9:58:18 am
14769Jamie Crouse39F3:58:29.712:41.2Sat Jun 1st 9:58:28 am
148223Faye Norby37F3:58:30.512:41.2Sat Jun 1st 9:58:29 am
14943Becky Brudwick52F3:58:39.912:41.7Sat Jun 1st 9:58:39 am
1503Paul Ahearn47M3:58:41.212:41.8Sat Jun 1st 9:58:40 am
151206Matt Monroe47M3:59:19.012:43.8Sat Jun 1st 9:59:18 am
15215James Baetz41M3:59:26.412:44.2Sat Jun 1st 9:59:25 am
1537Cheryl Anderson46F3:59:41.612:45.0Sat Jun 1st 9:59:40 am
154213Morgan Murphy42M3:59:56.112:45.8Sat Jun 1st 9:59:55 am
155119Andy Hahn35M3:59:57.412:45.8Sat Jun 1st 9:59:56 am
156144stephanie hurtado38F4:00:24.312:47.2Sat Jun 1st 10:00:23 am
15767Gary Craig31M4:00:25.412:47.3Sat Jun 1st 10:00:24 am
158270Liz Schumacher37F4:00:28.012:47.4Sat Jun 1st 10:00:27 am
15928Tim Belleau53M4:00:29.312:47.5Sat Jun 1st 10:00:28 am
160292Paul Thomson45M4:00:30.112:47.6Sat Jun 1st 10:00:29 am
161288Paul Swindle39M4:00:32.012:47.7Sat Jun 1st 10:00:31 am
16295David Fischer56M4:00:32.712:47.7Sat Jun 1st 10:00:32 am
163228Michael Parker34M4:01:27.512:50.6Sat Jun 1st 10:01:26 am
164235Josh Phillips38M4:01:37.612:51.1Sat Jun 1st 10:01:36 am
165123Geoff Hanley43M4:01:54.312:52.0Sat Jun 1st 10:01:53 am
16663Ryan Cooper43M4:01:58.712:52.3Sat Jun 1st 10:01:58 am
167316Trent Wester34M4:02:13.212:53.0Sat Jun 1st 10:02:12 am
168102Douglas Franklin38M4:02:33.612:54.1Sat Jun 1st 10:02:32 am
169265Dustin Schmidt33M4:02:35.012:54.2Sat Jun 1st 10:02:34 am
170291Jennifer Thoennes37F4:02:36.012:54.3Sat Jun 1st 10:02:35 am
171239Matthew Poore38M4:02:43.612:54.7Sat Jun 1st 10:02:42 am
172130Jason Hastings47M4:03:34.912:57.4Sat Jun 1st 10:03:34 am
17396Jeremy Fischer42M4:04:13.912:59.5Sat Jun 1st 10:04:13 am
17446Lucy Burke44F4:04:15.312:59.5Sat Jun 1st 10:04:14 am
175147Christian Jensen41M4:04:24.413:00.0Sat Jun 1st 10:04:23 am
176161Mike Kenney41M4:04:25.613:00.1Sat Jun 1st 10:04:24 am
177100Sara Foster43F4:05:14.313:02.7Sat Jun 1st 10:05:13 am
178252Mary Rittgers38F4:05:14.913:02.7Sat Jun 1st 10:05:14 am
179229Philip Parsons40M4:05:16.613:02.8Sat Jun 1st 10:05:15 am
18029Nicole Bernardin39F4:05:20.213:03.0Sat Jun 1st 10:05:19 am
181269Ann Scholl49F4:05:21.513:03.1Sat Jun 1st 10:05:20 am
182319Kim Willison49F4:05:22.713:03.1Sat Jun 1st 10:05:22 am
183272Dan-O Semsel52M4:05:23.613:03.2Sat Jun 1st 10:05:22 am
184204Jonathan Mireles35M4:05:38.413:04.0Sat Jun 1st 10:05:37 am
18556Ryan Clayton35M4:06:04.813:05.4Sat Jun 1st 10:06:04 am
186268Trudi Schoening40F4:06:30.213:06.7Sat Jun 1st 10:06:29 am
187329Tammy Zyduck54F4:06:36.013:07.0Sat Jun 1st 10:06:35 am
188152Jimmy Jones40M4:06:50.813:07.8Sat Jun 1st 10:06:50 am
18991Troy Figgins49M4:06:51.613:07.9Sat Jun 1st 10:06:50 am
190193Gregory Marshall29M4:06:57.813:08.2Sat Jun 1st 10:06:57 am
191279Philip Spicer28M4:06:58.813:08.2Sat Jun 1st 10:06:58 am
19292David Files44M4:06:59.713:08.3Sat Jun 1st 10:06:58 am
193289Christopher Tebeau48M4:07:05.613:08.6Sat Jun 1st 10:07:04 am
194258Ritzy Running23F4:07:28.213:09.8Sat Jun 1st 10:07:27 am
19521Michael Barnaby36M4:07:43.713:10.6Sat Jun 1st 10:07:42 am
196275Jason Shrontz39M4:07:44.513:10.7Sat Jun 1st 10:07:43 am
19735Hope Bollig39F4:08:25.713:12.9Sat Jun 1st 10:08:24 am
198286Stephen Strauss64M4:09:01.313:14.7Sat Jun 1st 10:09:00 am
199183Nile Limbach25M4:09:17.213:15.6Sat Jun 1st 10:09:16 am
200295Joel Toews41M4:09:22.213:15.9Sat Jun 1st 10:09:21 am
2015Richard Albanese46M4:09:49.113:17.3Sat Jun 1st 10:09:48 am
202167nathan koehn40M4:09:53.113:17.5Sat Jun 1st 10:09:52 am
20361Hannah Conway31F4:10:34.513:19.7Sat Jun 1st 10:10:33 am
204259Daryl Saari56M4:11:00.213:21.1Sat Jun 1st 10:10:59 am
205210Jen Mullen45F4:11:05.813:21.4Sat Jun 1st 10:11:05 am
2064Sevil Aksoy36F4:11:12.713:21.7Sat Jun 1st 10:11:11 am
207131Shannon Haus48M4:11:45.113:23.5Sat Jun 1st 10:11:44 am
208149Nathan Johnson36M4:11:51.513:23.8Sat Jun 1st 10:11:50 am
209250Michael Riordan35M4:11:53.413:23.9Sat Jun 1st 10:11:52 am
210128Jaime Hardgrove39F4:11:54.613:24.0Sat Jun 1st 10:11:53 am
211194Evan McDoniels37M4:11:55.513:24.0Sat Jun 1st 10:11:54 am
212198COLE MCNABB31M4:12:16.213:25.1Sat Jun 1st 10:12:15 am
21313Todd Arnold39M4:12:22.813:25.5Sat Jun 1st 10:12:22 am
214145Scott Irwin54M4:12:40.113:26.4Sat Jun 1st 10:12:39 am
215326Salli Scott Young46F4:12:46.413:26.7Sat Jun 1st 10:12:45 am
21664Daniel Cordova40M4:13:18.013:28.4Sat Jun 1st 10:13:17 am
217311Ryan Wanless41M4:13:51.513:30.2Sat Jun 1st 10:13:50 am
218192Nick Mariotti40M4:13:52.213:30.2Sat Jun 1st 10:13:51 am
219274Paul Shimondle67M4:13:53.613:30.3Sat Jun 1st 10:13:52 am
220137Jen Herdzina31F4:13:56.413:30.4Sat Jun 1st 10:13:55 am
221254arturo Rodriguez42M4:13:58.113:30.5Sat Jun 1st 10:13:57 am
222115Kelli Gorski39F4:14:01.213:30.7Sat Jun 1st 10:14:00 am
22390Bill Fairfield63M4:14:16.313:31.5Sat Jun 1st 10:14:15 am
22497Tara Flesch40F4:15:21.113:35.0Sat Jun 1st 10:15:20 am
225247Barry Reece49M4:15:30.613:35.5Sat Jun 1st 10:15:29 am
226111Megan Gibson39F4:16:19.013:38.0Sat Jun 1st 10:16:18 am
227281Josh Stebbins32M4:16:26.113:38.4Sat Jun 1st 10:16:25 am
228142Laura Hufschmidt38F4:16:53.813:39.9Sat Jun 1st 10:16:53 am
229170Randy Kreill56M4:17:53.613:43.1Sat Jun 1st 10:17:52 am
230323Karen Wray54F4:17:58.413:43.3Sat Jun 1st 10:17:57 am
231108Carl Galdine46M4:17:59.913:43.4Sat Jun 1st 10:17:59 am
232200Ryan Menard45M4:18:03.913:43.6Sat Jun 1st 10:18:03 am
233238Daria Podejko46F4:19:07.213:47.0Sat Jun 1st 10:19:06 am
234263Geni Scalio48F4:20:02.813:49.9Sat Jun 1st 10:20:02 am
235107Jeni Funk-Miller50F4:20:07.013:50.2Sat Jun 1st 10:20:06 am
236211Peter Mulligan53M4:20:08.913:50.3Sat Jun 1st 10:20:08 am
23762Jim Cooper50M4:20:11.313:50.4Sat Jun 1st 10:20:10 am
238165Leigh Knaus38F4:20:15.613:50.6Sat Jun 1st 10:20:14 am
239166Kendra Kneer38F4:20:17.213:50.7Sat Jun 1st 10:20:16 am
240207Erik Morrell42M4:20:21.613:50.9Sat Jun 1st 10:20:20 am
241305Nikki Vapensky Marvel49F4:22:16.413:57.0Sat Jun 1st 10:22:15 am
242267Andy Schmitz41M4:23:08.213:59.8Sat Jun 1st 10:23:07 am
243262Kevin Sas35M4:23:09.013:59.8Sat Jun 1st 10:23:08 am
24437Ryan Borucki41M4:23:11.914:00.0Sat Jun 1st 10:23:11 am
245162Leopold Kesseler21M4:23:40.414:01.5Sat Jun 1st 10:23:39 am
246294John Tiwet52M4:23:42.114:01.6Sat Jun 1st 10:23:41 am
24718Angela Barbera58F4:23:45.814:01.8Sat Jun 1st 10:23:45 am
24824Christian Barry51M4:23:46.614:01.8Sat Jun 1st 10:23:45 am
249273Shawn Severson46F4:23:54.014:02.2Sat Jun 1st 10:23:53 am
250180Aurora LeMay31F4:24:29.014:04.1Sat Jun 1st 10:24:28 am
25139Linda Britz49F4:26:37.014:10.9Sat Jun 1st 10:26:36 am
252285Arno Stoffel50M4:27:06.914:12.5Sat Jun 1st 10:27:06 am
253240REGAN POURCHOT59M4:27:22.914:13.3Sat Jun 1st 10:27:22 am
254271Tyler sears31M4:27:28.714:13.7Sat Jun 1st 10:27:28 am
255187Jeffery Lung40M4:27:35.614:14.0Sat Jun 1st 10:27:34 am
256306Edna Jackeline Vazquez Lung37F4:27:44.914:14.5Sat Jun 1st 10:27:44 am
257160Michael Kennedy36M4:27:47.614:14.7Sat Jun 1st 10:27:46 am
258159Mandi Kennedy36F4:27:48.814:14.7Sat Jun 1st 10:27:48 am
259116Joe Gow56M4:27:57.514:15.2Sat Jun 1st 10:27:56 am
260129Josh Harris33M4:27:59.514:15.3Sat Jun 1st 10:27:58 am
261177Brian Landstrom67M4:29:06.314:18.8Sat Jun 1st 10:29:05 am
26234Irina Boggie-Miloserdova59F4:29:07.614:18.9Sat Jun 1st 10:29:06 am
263216Mack Naber35M4:30:00.614:21.7Sat Jun 1st 10:29:59 am
264178Jeff laughead42M4:30:58.414:24.8Sat Jun 1st 10:30:57 am
265156brandon karl43M4:31:18.614:25.9Sat Jun 1st 10:31:17 am
266189Jennifer Majewski35F4:32:13.914:28.8Sat Jun 1st 10:32:13 am
26712Anjanette Arnold43F4:32:24.214:29.4Sat Jun 1st 10:32:23 am
268197todd mcmillion54M4:32:31.714:29.8Sat Jun 1st 10:32:31 am
269133jon hendren57M4:32:39.014:30.2Sat Jun 1st 10:32:38 am
270242Noah Praetz42M4:33:00.014:31.3Sat Jun 1st 10:32:59 am
271308Erica Wagner32F4:33:02.114:31.4Sat Jun 1st 10:33:01 am
27265Carleen Coulter52F4:33:05.314:31.6Sat Jun 1st 10:33:04 am
2738Jay Anderson46M4:33:06.814:31.6Sat Jun 1st 10:33:06 am
27499Ron Foster52M4:33:33.414:33.1Sat Jun 1st 10:33:32 am
275190Elizabeth Male28F4:36:27.714:42.3Sat Jun 1st 10:36:26 am
276253Tara Roberts39F4:37:32.614:45.8Sat Jun 1st 10:37:31 am
277205Andrew Mitchel55M4:38:15.314:48.0Sat Jun 1st 10:38:14 am
278321torrey wilson28F4:39:23.014:51.6Sat Jun 1st 10:39:22 am
27948Susan Bush51F4:39:32.814:52.2Sat Jun 1st 10:39:32 am
280290Josh TenBrink38M4:39:54.714:53.3Sat Jun 1st 10:39:53 am
281121Becca Hamm McMillan30F4:39:55.714:53.4Sat Jun 1st 10:39:55 am
282168Irene Kok48F4:43:19.415:04.2Sat Jun 1st 10:43:18 am
28380John Doyle58M4:43:30.315:04.8Sat Jun 1st 10:43:29 am
284249Kimmy Riley58F4:43:44.515:05.6Sat Jun 1st 10:43:43 am
285324Kenny Wunder42M4:44:06.515:06.7Sat Jun 1st 10:44:05 am
28666Ezra Coutre30M4:44:07.715:06.8Sat Jun 1st 10:44:06 am
287320Dennis wilson61M4:44:35.015:08.2Sat Jun 1st 10:44:34 am
28859Jennell Colwell40F4:46:57.615:15.8Sat Jun 1st 10:46:56 am
289114Patrick Gorman60M4:51:36.515:30.7Sat Jun 1st 10:51:35 am
290155Walter Kapellen41M4:51:46.415:31.2Sat Jun 1st 10:51:45 am
291175Traci Lambert-Cwerenz58F4:52:06.115:32.2Sat Jun 1st 10:52:05 am
292101Jenny Fox34F4:52:49.915:34.6Sat Jun 1st 10:52:49 am
293257Jeffrey Ruiz53M4:53:26.515:36.5Sat Jun 1st 10:53:25 am
294221kimberly nickel54F4:59:25.815:55.6Sat Jun 1st 10:59:25 am
295185Radek Lopusnik45M5:00:13.715:58.2Sat Jun 1st 11:00:12 am
296327Beiyi Zheng55F5:12:21.416:36.9Sat Jun 1st 11:12:20 am
297158Evie Kellogg39F5:17:01.016:51.8Sat Jun 1st 11:17:00 am
298188Janette Maas60F6:00:59.719:12.1Sat Jun 1st 12:00:58 pm

Event Information
Name of Event:Kettle Moraine 100k
Distance:100 Kilometers
Started Date/Time:Saturday June 1st, 2019, 5:59:59.29 am
button: Assign Numbers 

Event Information
Name of Event:Kettle Team Relay
Distance:100 Miles
Started Date/Time:Saturday June 1st, 2019, 5:59:59.29 am
button: Assign Numbers 

Event Information
Name of Event:Kettle Moraine 50k
Distance:50 Kilometers
Started Date/Time:Saturday June 1st, 2019, 1:00:00.20 pm
button: Assign Numbers 

Event Information
Name of Event:Kettle 38 mile Fun Run
Distance:38 Miles
Scheduled Date/Time:Saturday June 1, 2019, 5:30 pm
button: Assign Numbers 
2004-2019 : All rights reserved
Terms and Conditions